createdAt,value
2019-05-12T00:00:20.136Z,9.49
2019-05-12T00:02:48.711Z,9.47
2019-05-12T00:05:18.534Z,9.49
2019-05-12T00:07:48.773Z,9.49
2019-05-12T00:10:17.909Z,9.47
2019-05-12T00:12:48.273Z,9.46
2019-05-12T00:15:19.380Z,9.40
2019-05-12T00:17:48.160Z,9.36
2019-05-12T00:20:18.089Z,9.29
2019-05-12T00:22:48.809Z,9.17
2019-05-12T00:25:18.127Z,9.08
2019-05-12T00:27:48.707Z,9.01
2019-05-12T00:30:33.636Z,8.96
2019-05-12T00:33:03.033Z,8.84
2019-05-12T00:35:31.514Z,8.75
2019-05-12T00:38:00.003Z,8.66
2019-05-12T00:40:28.396Z,8.63
2019-05-12T00:42:57.735Z,8.59
2019-05-12T00:45:28.927Z,8.54
2019-05-12T00:47:58.194Z,8.51
2019-05-12T00:50:28.995Z,8.48
2019-05-12T00:52:57.917Z,8.49
2019-05-12T00:55:28.769Z,8.50
2019-05-12T00:57:58.210Z,8.46
2019-05-12T01:00:29.278Z,8.42
2019-05-12T01:02:58.137Z,8.38
2019-05-12T01:05:29.159Z,8.29
2019-05-12T01:07:58.366Z,8.20
2019-05-12T01:10:28.601Z,8.13
2019-05-12T01:12:58.207Z,8.10
2019-05-12T01:15:28.623Z,8.05
2019-05-12T01:17:58.622Z,7.99
2019-05-12T01:20:28.402Z,7.95
2019-05-12T01:22:57.918Z,7.89
2019-05-12T01:25:28.784Z,7.83
2019-05-12T01:27:58.924Z,7.80
2019-05-12T01:30:28.416Z,7.75
2019-05-12T01:32:58.068Z,7.71
2019-05-12T01:35:28.111Z,7.69
2019-05-12T01:37:58.728Z,7.66
2019-05-12T01:40:28.531Z,7.68
2019-05-12T01:42:58.204Z,7.67
2019-05-12T01:45:28.745Z,7.66
2019-05-12T01:47:58.986Z,7.66
2019-05-12T01:50:28.248Z,7.63
2019-05-12T01:52:59.934Z,7.65
2019-05-12T01:55:28.454Z,7.62
2019-05-12T01:57:57.700Z,7.59
2019-05-12T02:00:28.358Z,7.59
2019-05-12T02:02:58.433Z,7.58
2019-05-12T02:05:27.973Z,7.54
2019-05-12T02:07:58.819Z,7.50
2019-05-12T02:10:28.701Z,7.52
2019-05-12T02:12:59.400Z,7.52
2019-05-12T02:15:27.999Z,7.50
2019-05-12T02:17:58.610Z,7.48
2019-05-12T02:20:28.743Z,7.47
2019-05-12T02:22:58.327Z,7.47
2019-05-12T02:25:28.772Z,7.48
2019-05-12T02:27:58.392Z,7.51
2019-05-12T02:30:30.406Z,7.44
2019-05-12T02:32:59.878Z,7.43
2019-05-12T02:35:27.251Z,7.42
2019-05-12T02:37:55.639Z,7.47
2019-05-12T02:40:25.149Z,7.45
2019-05-12T02:42:55.062Z,7.45
2019-05-12T02:45:25.402Z,7.38
2019-05-12T02:47:54.409Z,7.38
2019-05-12T02:50:28.860Z,7.35
2019-05-12T02:52:57.237Z,7.35
2019-05-12T02:55:25.912Z,7.37
2019-05-12T02:57:55.618Z,7.34
2019-05-12T03:00:24.322Z,7.28
2019-05-12T03:02:54.794Z,7.25
2019-05-12T03:05:24.809Z,7.23
2019-05-12T03:07:56.070Z,7.23
2019-05-12T03:10:25.239Z,7.25
2019-05-12T03:12:54.962Z,7.21
2019-05-12T03:15:25.078Z,7.20
2019-05-12T03:17:54.590Z,7.20
2019-05-12T03:20:24.241Z,7.30
2019-05-12T03:22:55.400Z,7.26
2019-05-12T03:25:28.931Z,7.30
2019-05-12T03:27:54.545Z,7.20
2019-05-12T03:30:28.037Z,7.14
2019-05-12T03:32:57.997Z,7.13
2019-05-12T03:35:32.205Z,7.13
2019-05-12T03:37:54.792Z,7.11
2019-05-12T03:40:24.934Z,7.13
2019-05-12T03:42:54.878Z,7.08
2019-05-12T03:45:25.141Z,7.04
2019-05-12T03:47:54.794Z,7.04
2019-05-12T03:50:24.475Z,6.97
2019-05-12T03:52:56.443Z,6.94
2019-05-12T03:55:31.665Z,6.88
2019-05-12T03:57:55.119Z,6.84
2019-05-12T04:00:24.687Z,6.84
2019-05-12T04:02:55.601Z,6.82
2019-05-12T04:05:24.309Z,6.79
2019-05-12T04:07:54.658Z,6.76
2019-05-12T04:10:24.743Z,6.69
2019-05-12T04:12:54.881Z,6.32
2019-05-12T04:15:25.544Z,6.75
2019-05-12T04:17:54.305Z,6.67
2019-05-12T04:20:25.486Z,6.67
2019-05-12T04:22:54.737Z,6.65
2019-05-12T04:25:24.966Z,6.62
2019-05-12T04:27:54.237Z,6.60
2019-05-12T04:30:24.964Z,6.60
2019-05-12T04:32:55.270Z,6.61
2019-05-12T04:35:25.184Z,6.59
2019-05-12T04:37:55.377Z,6.61
2019-05-12T04:40:24.803Z,6.60
2019-05-12T04:42:54.815Z,6.59
2019-05-12T04:45:25.496Z,6.59
2019-05-12T04:47:55.210Z,6.59
2019-05-12T04:50:24.692Z,6.60
2019-05-12T04:52:54.862Z,6.61
2019-05-12T04:55:25.624Z,6.09
2019-05-12T04:57:54.547Z,6.58
2019-05-12T05:00:25.740Z,6.57
2019-05-12T05:02:54.473Z,6.53
2019-05-12T05:05:24.822Z,6.53
2019-05-12T05:07:54.850Z,6.52
2019-05-12T05:10:24.928Z,6.52
2019-05-12T05:12:54.353Z,6.49
2019-05-12T05:15:24.955Z,6.44
2019-05-12T05:17:54.560Z,6.43
2019-05-12T05:20:23.985Z,6.43
2019-05-12T05:22:54.201Z,6.41
2019-05-12T05:25:23.680Z,6.39
2019-05-12T05:27:53.282Z,5.93
2019-05-12T05:30:24.204Z,6.35
2019-05-12T05:32:53.582Z,6.34
2019-05-12T05:35:23.874Z,6.34
2019-05-12T05:37:53.871Z,6.33
2019-05-12T05:40:26.019Z,6.34
2019-05-12T05:42:54.164Z,6.33
2019-05-12T05:45:25.937Z,6.35
2019-05-12T05:47:54.457Z,6.38
2019-05-12T05:50:25.199Z,6.41
2019-05-12T05:52:54.272Z,6.38
2019-05-12T05:55:23.325Z,6.37
2019-05-12T05:57:53.512Z,6.35
2019-05-12T06:00:26.015Z,6.35
2019-05-12T06:02:54.457Z,6.37
2019-05-12T06:05:26.282Z,6.37
2019-05-12T06:07:53.581Z,6.34
2019-05-12T06:10:34.756Z,6.36
2019-05-12T06:12:54.138Z,6.39
2019-05-12T06:15:23.544Z,6.41
2019-05-12T06:17:53.830Z,6.38
2019-05-12T06:20:23.814Z,6.37
2019-05-12T06:22:54.602Z,5.20
2019-05-12T06:25:26.442Z,6.44
2019-05-12T06:28:00.055Z,6.47
2019-05-12T06:30:25.629Z,6.51
2019-05-12T06:32:54.702Z,6.50
2019-05-12T06:35:24.095Z,6.46
2019-05-12T06:38:00.110Z,6.56
2019-05-12T06:40:24.368Z,6.56
2019-05-12T06:42:56.975Z,6.61
2019-05-12T06:45:23.552Z,6.62
2019-05-12T06:47:54.105Z,6.67
2019-05-12T06:50:23.723Z,6.71
2019-05-12T06:52:53.115Z,6.75
2019-05-12T06:55:23.696Z,6.78
2019-05-12T06:57:51.568Z,6.82
2019-05-12T07:00:22.219Z,6.83
2019-05-12T07:02:54.749Z,6.86
2019-05-12T07:05:20.320Z,6.88
2019-05-12T07:07:48.704Z,6.91
2019-05-12T07:10:35.474Z,6.91
2019-05-12T07:12:58.896Z,6.96
2019-05-12T07:15:17.717Z,7.00
2019-05-12T07:17:49.807Z,7.05
2019-05-12T07:20:17.829Z,7.02
2019-05-12T07:22:48.814Z,7.02
2019-05-12T07:25:17.219Z,7.04
2019-05-12T07:27:53.645Z,7.05
2019-05-12T07:30:18.744Z,7.07
2019-05-12T07:32:51.169Z,7.10
2019-05-12T07:35:17.241Z,7.12
2019-05-12T07:37:46.763Z,7.15
2019-05-12T07:40:19.013Z,6.99
2019-05-12T07:42:45.903Z,6.88
2019-05-12T07:45:20.616Z,6.76
2019-05-12T07:47:45.022Z,6.79
2019-05-12T07:50:16.186Z,6.76
2019-05-12T07:52:44.245Z,6.84
2019-05-12T07:55:14.721Z,6.87
2019-05-12T07:57:52.839Z,7.00
2019-05-12T08:00:21.313Z,6.98
2019-05-12T08:02:44.339Z,6.98
2019-05-12T08:05:19.391Z,7.00
2019-05-12T08:07:44.712Z,6.58
2019-05-12T08:10:19.658Z,7.16
2019-05-12T08:12:44.583Z,7.19
2019-05-12T08:15:14.206Z,7.12
2019-05-12T08:17:44.114Z,7.15
2019-05-12T08:20:13.476Z,7.25
2019-05-12T08:22:43.786Z,7.26
2019-05-12T08:25:13.407Z,7.37
2019-05-12T08:27:45.237Z,7.40
2019-05-12T08:30:13.855Z,7.43
2019-05-12T08:32:44.343Z,7.47
2019-05-12T08:35:13.960Z,7.55
2019-05-12T08:37:44.107Z,7.68
2019-05-12T08:40:15.379Z,7.79
2019-05-12T08:42:43.632Z,7.90
2019-05-12T08:45:15.269Z,8.00
2019-05-12T08:47:44.068Z,8.01
2019-05-12T08:50:13.636Z,8.09
2019-05-12T08:52:44.228Z,8.16
2019-05-12T08:55:16.385Z,8.25
2019-05-12T08:57:48.966Z,8.30
2019-05-12T09:00:13.446Z,8.37
2019-05-12T09:02:46.091Z,8.52
2019-05-12T09:05:14.278Z,8.58
2019-05-12T09:07:43.543Z,8.56
2019-05-12T09:10:14.159Z,8.64
2019-05-12T09:12:44.181Z,8.69
2019-05-12T09:15:13.596Z,8.76
2019-05-12T09:17:49.085Z,8.82
2019-05-12T09:20:13.728Z,8.84
2019-05-12T09:22:43.268Z,8.82
2019-05-12T09:25:14.119Z,8.88
2019-05-12T09:27:45.664Z,8.99
2019-05-12T09:30:14.171Z,9.14
2019-05-12T09:32:48.640Z,9.25
2019-05-12T09:35:14.421Z,9.32
2019-05-12T09:37:44.118Z,9.29
2019-05-12T09:40:14.923Z,9.28
2019-05-12T09:42:44.058Z,9.22
2019-05-12T09:45:13.833Z,9.13
2019-05-12T09:47:43.607Z,9.14
2019-05-12T09:50:18.339Z,9.18
2019-05-12T09:52:44.099Z,9.23
2019-05-12T09:55:14.817Z,9.18
2019-05-12T09:57:45.039Z,9.30
2019-05-12T10:00:13.872Z,9.38
2019-05-12T10:02:43.595Z,9.37
2019-05-12T10:05:14.496Z,9.30
2019-05-12T10:07:44.553Z,9.36
2019-05-12T10:10:14.223Z,9.39
2019-05-12T10:12:46.315Z,9.43
2019-05-12T10:15:18.584Z,9.46
2019-05-12T10:17:44.150Z,9.38
2019-05-12T10:20:13.721Z,9.38
2019-05-12T10:22:43.773Z,9.41
2019-05-12T10:25:14.380Z,9.45
2019-05-12T10:27:44.272Z,9.58
2019-05-12T10:30:17.441Z,9.60
2019-05-12T10:32:43.837Z,9.58
2019-05-12T10:35:20.827Z,9.60
2019-05-12T10:37:46.856Z,9.62
2019-05-12T10:40:14.064Z,9.62
2019-05-12T10:42:46.056Z,9.70
2019-05-12T10:45:16.936Z,9.66
2019-05-12T10:47:43.080Z,9.68
2019-05-12T10:50:11.597Z,9.65
2019-05-12T10:52:39.985Z,9.70
2019-05-12T10:55:09.711Z,9.81
2019-05-12T10:57:38.162Z,9.84
2019-05-12T11:00:08.954Z,9.84
2019-05-12T11:02:37.334Z,9.91
2019-05-12T11:05:12.411Z,9.93
2019-05-12T11:07:37.162Z,9.95
2019-05-12T11:10:15.634Z,9.88
2019-05-12T11:12:38.658Z,9.91
2019-05-12T11:15:08.985Z,9.97
2019-05-12T11:17:54.263Z,9.96
2019-05-12T11:20:25.149Z,10.04
2019-05-12T11:22:54.243Z,10.10
2019-05-12T11:25:24.697Z,10.20
2019-05-12T11:27:54.921Z,10.24
2019-05-12T11:30:24.023Z,10.27
2019-05-12T11:32:54.110Z,10.29
2019-05-12T11:35:23.693Z,10.29
2019-05-12T11:37:53.890Z,10.32
2019-05-12T11:40:23.889Z,10.41
2019-05-12T11:42:59.032Z,10.53
2019-05-12T11:45:24.159Z,10.68
2019-05-12T11:47:59.115Z,10.76
2019-05-12T11:50:23.421Z,10.67
2019-05-12T11:52:52.343Z,10.62
2019-05-12T11:55:21.368Z,10.61
2019-05-12T11:57:51.046Z,10.68
2019-05-12T12:00:21.464Z,10.72
2019-05-12T12:02:49.826Z,10.71
2019-05-12T12:05:18.317Z,10.67
2019-05-12T12:07:51.356Z,10.70
2019-05-12T12:10:17.049Z,10.75
2019-05-12T12:12:49.336Z,10.71
2019-05-12T12:15:20.375Z,10.66
2019-05-12T12:17:46.499Z,10.39
2019-05-12T12:20:22.539Z,10.62
2019-05-12T12:22:48.987Z,10.68
2019-05-12T12:25:25.020Z,10.69
2019-05-12T12:27:53.842Z,10.73
2019-05-12T12:30:23.613Z,10.62
2019-05-12T12:32:57.209Z,10.61
2019-05-12T12:35:23.411Z,10.52
2019-05-12T12:37:53.946Z,10.52
2019-05-12T12:40:21.933Z,10.45
2019-05-12T12:42:50.329Z,10.41
2019-05-12T12:45:40.361Z,10.45
2019-05-12T12:48:07.319Z,10.43
2019-05-12T12:50:35.698Z,10.47
2019-05-12T12:53:04.159Z,10.47
2019-05-12T12:55:32.544Z,10.52
2019-05-12T12:58:02.823Z,10.57
2019-05-12T13:00:46.127Z,10.61
2019-05-12T13:03:03.727Z,10.65
2019-05-12T13:05:34.545Z,10.61
2019-05-12T13:08:04.249Z,10.62
2019-05-12T13:10:33.655Z,10.68
2019-05-12T13:13:04.119Z,10.76
2019-05-12T13:15:34.024Z,10.80
2019-05-12T13:18:02.637Z,10.87
2019-05-12T13:20:30.993Z,10.90
2019-05-12T13:22:59.381Z,10.89
2019-05-12T13:25:27.772Z,10.77
2019-05-12T13:27:56.161Z,10.73
2019-05-12T13:30:24.575Z,10.76
2019-05-12T13:32:52.954Z,10.77
2019-05-12T13:35:23.770Z,10.76
2019-05-12T13:37:56.444Z,10.79
2019-05-12T13:40:23.365Z,10.85
2019-05-12T13:42:54.318Z,10.82
2019-05-12T13:45:24.110Z,10.81
2019-05-12T13:47:53.417Z,10.80
2019-05-12T13:50:26.202Z,10.82
2019-05-12T13:52:54.055Z,10.83
2019-05-12T13:55:23.962Z,10.77
2019-05-12T13:57:57.441Z,10.77
2019-05-12T14:00:22.415Z,10.74
2019-05-12T14:02:57.209Z,10.72
2019-05-12T14:05:20.917Z,10.68
2019-05-12T14:07:50.017Z,10.68
2019-05-12T14:10:19.460Z,10.73
2019-05-12T14:12:47.851Z,10.73
2019-05-12T14:15:17.814Z,10.75
2019-05-12T14:17:46.264Z,10.80
2019-05-12T14:20:19.949Z,10.87
2019-05-12T14:22:45.058Z,10.85
2019-05-12T14:25:15.287Z,10.90
2019-05-12T14:27:44.623Z,10.88
2019-05-12T14:30:14.439Z,10.92
2019-05-12T14:32:43.990Z,10.94
2019-05-12T14:35:12.658Z,10.92
2019-05-12T14:37:45.948Z,10.91
2019-05-12T14:40:13.418Z,10.95
2019-05-12T14:42:43.996Z,10.98
2019-05-12T14:45:13.726Z,10.99
2019-05-12T14:47:43.762Z,11.02
2019-05-12T14:50:14.159Z,11.03
2019-05-12T14:52:44.047Z,11.08
2019-05-12T14:55:14.490Z,11.08
2019-05-12T14:57:42.874Z,11.12
2019-05-12T15:00:19.193Z,11.15
2019-05-12T15:02:43.863Z,11.14
2019-05-12T15:05:14.639Z,11.16
2019-05-12T15:07:51.304Z,11.12
2019-05-12T15:10:14.418Z,11.15
2019-05-12T15:12:44.173Z,11.18
2019-05-12T15:15:15.666Z,11.25
2019-05-12T15:17:44.432Z,11.31
2019-05-12T15:20:13.910Z,11.33
2019-05-12T15:22:51.403Z,11.32
2019-05-12T15:25:14.567Z,11.31
2019-05-12T15:27:45.968Z,11.35
2019-05-12T15:30:22.831Z,11.33
2019-05-12T15:32:45.201Z,11.35
2019-05-12T15:35:14.048Z,11.39
2019-05-12T15:37:43.520Z,11.40
2019-05-12T15:40:14.435Z,11.45
2019-05-12T15:42:45.313Z,11.46
2019-05-12T15:45:16.387Z,11.49
2019-05-12T15:47:44.697Z,11.49
2019-05-12T15:50:14.749Z,11.45
2019-05-12T15:52:45.725Z,11.47
2019-05-12T15:55:17.773Z,11.52
2019-05-12T15:57:44.476Z,11.54
2019-05-12T16:00:16.963Z,11.57
2019-05-12T16:02:45.180Z,11.58
2019-05-12T16:05:14.748Z,11.59
2019-05-12T16:07:44.220Z,11.60
2019-05-12T16:10:14.470Z,11.63
2019-05-12T16:12:43.637Z,11.62
2019-05-12T16:15:19.423Z,11.64
2019-05-12T16:17:46.139Z,11.65
2019-05-12T16:20:14.662Z,11.62
2019-05-12T16:22:45.250Z,11.64
2019-05-12T16:25:15.361Z,11.64
2019-05-12T16:27:44.591Z,11.64
2019-05-12T16:30:14.107Z,11.65
2019-05-12T16:32:47.247Z,11.68
2019-05-12T16:35:14.523Z,11.65
2019-05-12T16:37:44.260Z,11.67
2019-05-12T16:40:13.902Z,11.67
2019-05-12T16:42:48.373Z,11.70
2019-05-12T16:45:14.377Z,11.72
2019-05-12T16:47:44.724Z,11.73
2019-05-12T16:50:16.691Z,11.78
2019-05-12T16:52:45.363Z,11.75
2019-05-12T16:55:14.307Z,11.75
2019-05-12T16:57:50.972Z,11.72
2019-05-12T17:00:14.003Z,11.71
2019-05-12T17:02:52.178Z,11.71
2019-05-12T17:05:18.503Z,11.71
2019-05-12T17:07:44.234Z,11.70
2019-05-12T17:10:16.434Z,11.67
2019-05-12T17:12:43.728Z,11.62
2019-05-12T17:15:14.632Z,11.59
2019-05-12T17:17:44.736Z,11.55
2019-05-12T17:20:13.796Z,11.53
2019-05-12T17:22:53.706Z,11.51
2019-05-12T17:25:15.367Z,11.50
2019-05-12T17:27:44.885Z,11.48
2019-05-12T17:30:13.815Z,11.44
2019-05-12T17:32:54.883Z,11.42
2019-05-12T17:35:14.559Z,11.44
2019-05-12T17:37:46.449Z,11.41
2019-05-12T17:40:19.916Z,11.40
2019-05-12T17:42:45.233Z,11.40
2019-05-12T17:45:20.272Z,11.39
2019-05-12T17:47:44.645Z,11.39
2019-05-12T17:50:13.788Z,11.39
2019-05-12T17:52:45.094Z,11.38
2019-05-12T17:55:15.011Z,11.34
2019-05-12T17:57:44.044Z,11.32
2019-05-12T18:00:14.799Z,11.33
2019-05-12T18:02:43.920Z,11.31
2019-05-12T18:05:15.508Z,11.25
2019-05-12T18:07:44.549Z,11.23
2019-05-12T18:10:13.845Z,11.22
2019-05-12T18:12:45.272Z,11.20
2019-05-12T18:15:15.057Z,11.18
2019-05-12T18:17:45.200Z,11.13
2019-05-12T18:20:14.714Z,11.09
2019-05-12T18:22:45.041Z,11.07
2019-05-12T18:25:14.636Z,11.05
2019-05-12T18:27:50.192Z,11.05
2019-05-12T18:30:16.599Z,11.02
2019-05-12T18:32:43.787Z,11.00
2019-05-12T18:35:13.768Z,10.99
2019-05-12T18:37:42.282Z,10.96
2019-05-12T18:40:14.468Z,10.95
2019-05-12T18:42:43.195Z,10.93
2019-05-12T18:45:16.896Z,10.93
2019-05-12T18:47:44.069Z,10.92
2019-05-12T18:50:14.111Z,10.89
2019-05-12T18:52:46.033Z,10.86
2019-05-12T18:55:16.662Z,10.85
2019-05-12T18:57:49.761Z,10.85
2019-05-12T19:00:18.393Z,10.83
2019-05-12T19:02:47.047Z,10.82
2019-05-12T19:05:21.758Z,10.83
2019-05-12T19:07:46.584Z,10.83
2019-05-12T19:10:18.670Z,10.78
2019-05-12T19:12:51.738Z,10.58
2019-05-12T19:15:21.844Z,10.71
2019-05-12T19:17:47.313Z,10.68
2019-05-12T19:20:15.935Z,10.68
2019-05-12T19:22:56.130Z,10.64
2019-05-12T19:25:15.281Z,10.61
2019-05-12T19:27:45.990Z,10.63
2019-05-12T19:30:19.458Z,10.61
2019-05-12T19:32:45.100Z,10.60
2019-05-12T19:35:25.564Z,10.58
2019-05-12T19:37:54.112Z,10.58
2019-05-12T19:40:22.509Z,10.56
2019-05-12T19:42:53.775Z,10.54
2019-05-12T19:45:21.885Z,10.51
2019-05-12T19:47:53.572Z,10.49
2019-05-12T19:50:22.031Z,10.45
2019-05-12T19:52:50.546Z,10.44
2019-05-12T19:55:26.428Z,10.45
2019-05-12T19:57:54.866Z,10.44
2019-05-12T20:00:23.681Z,10.43
2019-05-12T20:02:53.767Z,10.40
2019-05-12T20:05:23.738Z,10.38
2019-05-12T20:07:53.730Z,10.31
2019-05-12T20:10:24.365Z,10.30
2019-05-12T20:12:54.839Z,10.26
2019-05-12T20:15:24.117Z,10.25
2019-05-12T20:17:53.578Z,10.21
2019-05-12T20:20:26.689Z,10.20
2019-05-12T20:22:54.179Z,10.16
2019-05-12T20:25:23.636Z,10.16
2019-05-12T20:28:01.534Z,10.19
2019-05-12T20:30:24.062Z,10.17
2019-05-12T20:32:54.012Z,10.14
2019-05-12T20:35:22.626Z,10.14
2019-05-12T20:37:54.229Z,10.14
2019-05-12T20:40:23.734Z,10.10
2019-05-12T20:43:07.416Z,10.10
2019-05-12T20:45:25.332Z,10.09
2019-05-12T20:47:53.237Z,10.06
2019-05-12T20:50:25.913Z,10.05
2019-05-12T20:52:58.512Z,10.03
2019-05-12T20:55:23.429Z,10.03
2019-05-12T20:57:54.452Z,10.02
2019-05-12T21:00:28.902Z,10.02
2019-05-12T21:02:57.295Z,10.00
2019-05-12T21:05:25.680Z,9.96
2019-05-12T21:07:55.764Z,9.94
2019-05-12T21:10:30.839Z,9.90
2019-05-12T21:12:59.234Z,9.88
2019-05-12T21:15:40.632Z,9.84
2019-05-12T21:18:10.593Z,9.84
2019-05-12T21:20:40.917Z,9.84
2019-05-12T21:23:09.297Z,9.83
2019-05-12T21:25:37.878Z,9.81
2019-05-12T21:28:20.498Z,9.78
2019-05-12T21:30:55.760Z,9.79
2019-05-12T21:33:25.233Z,9.78
2019-05-12T21:36:00.479Z,9.80
2019-05-12T21:38:29.680Z,9.78
2019-05-12T21:41:02.073Z,9.58
2019-05-12T21:43:28.395Z,9.74
2019-05-12T21:46:01.159Z,9.73
2019-05-12T21:48:29.321Z,9.71
2019-05-12T21:50:57.009Z,9.70
2019-05-12T21:53:25.400Z,9.66
2019-05-12T21:55:57.589Z,9.48
2019-05-12T21:58:23.878Z,9.60
2019-05-12T22:01:00.061Z,9.58
2019-05-12T22:03:26.110Z,9.57
2019-05-12T22:05:55.658Z,9.57
2019-05-12T22:08:25.815Z,9.55
2019-05-12T22:10:54.600Z,9.55
2019-05-12T22:13:22.981Z,9.53
2019-05-12T22:15:57.324Z,9.50
2019-05-12T22:18:23.951Z,9.49
2019-05-12T22:21:01.255Z,9.46
2019-05-12T22:23:24.563Z,9.45
2019-05-12T22:25:55.648Z,9.42
2019-05-12T22:28:23.983Z,9.41
2019-05-12T22:30:54.127Z,9.40
2019-05-12T22:33:24.170Z,9.38
2019-05-12T22:36:02.907Z,9.34
2019-05-12T22:38:24.710Z,9.33
2019-05-12T22:40:55.994Z,9.32
2019-05-12T22:43:23.910Z,9.31
2019-05-12T22:45:54.465Z,9.29
2019-05-12T22:48:22.417Z,9.30
2019-05-12T22:50:50.802Z,9.28
2019-05-12T22:53:19.560Z,9.27
2019-05-12T22:55:49.320Z,9.23
2019-05-12T22:58:22.356Z,9.23
2019-05-12T23:00:51.211Z,9.21
2019-05-12T23:03:17.989Z,9.21
2019-05-12T23:05:50.694Z,9.21
2019-05-12T23:08:16.488Z,9.21
2019-05-12T23:10:51.523Z,9.18
2019-05-12T23:13:14.980Z,9.17
2019-05-12T23:15:47.568Z,9.15
2019-05-12T23:18:14.000Z,9.12
2019-05-12T23:20:43.861Z,9.12
2019-05-12T23:23:15.391Z,9.11
2019-05-12T23:25:44.110Z,9.10
2019-05-12T23:28:12.516Z,9.06
2019-05-12T23:30:43.712Z,9.05
2019-05-12T23:33:16.873Z,9.06
2019-05-12T23:35:45.325Z,9.06
2019-05-12T23:38:18.747Z,9.07
2019-05-12T23:40:43.802Z,9.04
2019-05-12T23:43:14.356Z,9.04
2019-05-12T23:45:44.318Z,9.03
2019-05-12T23:48:14.502Z,9.02
2019-05-12T23:50:43.791Z,9.02
2019-05-12T23:53:14.082Z,9.01
2019-05-12T23:55:43.734Z,9.01
2019-05-12T23:58:14.258Z,9.01
